Last 24 Hours

UH Manoa Atmospheric Sciences

15 Minute Data | Pacific/Honolulu
as of 1/29/23 6:04 PM HST
Station Date Time Temp (°F) RH (%) Dew Pt (°F) Wind Spd (mph) Wind Dir (°) Wind Gust (mph) Latest Rain (In) Solar Rad (W/m2) Heat Index (°F) Barometric Press (inHg) Daily Rain (In) Daily Min Temp (°F) Daily Max Temp (°F) Daily Max Wind (mph)
UH Manoa Atmospheric Sciences 1/29/23 1800 69.4 89 66.0 3.2 SE | 145 10.4 0.03 7 69.4 30.00 0.62 68.8 73.0 36.5
UH Manoa Atmospheric Sciences 1/29/23 1745 69.4 88 65.7 2.0 WSW | 243 8.0 0.01 20 69.4 30.00 0.59 68.8 73.0 36.5
UH Manoa Atmospheric Sciences 1/29/23 1730 69.6 88 65.8 2.3 SSW | 194 7.8 0.02 24 69.6 29.99 0.58 68.8 73.0 36.5
UH Manoa Atmospheric Sciences 1/29/23 1715 69.8 87 65.6 2.7 SE | 132 10.4 0.01 23 69.8 29.99 0.56 68.8 73.0 36.5
UH Manoa Atmospheric Sciences 1/29/23 1700 69.8 86 65.4 4.1 SE | 133 15.6 0.01 43 69.8 29.98 0.55 68.8 73.0 36.5
UH Manoa Atmospheric Sciences 1/29/23 1645 70.0 84 65.1 6.5 NNE | 17 20.9 0.00 63 70.0 29.97 0.54 68.8 73.0 36.5
UH Manoa Atmospheric Sciences 1/29/23 1630 70.4 84 65.2 9.8 NNE | 29 20.7 0.03 82 70.4 29.97 0.54 68.8 73.0 36.5
UH Manoa Atmospheric Sciences 1/29/23 1615 69.8 85 65.0 12.0 NE | 34 25.3 0.00 89 69.8 29.97 0.51 68.8 73.0 36.5
UH Manoa Atmospheric Sciences 1/29/23 1600 69.8 86 65.4 14.4 NE | 36 29.2 0.00 93 69.8 29.96 0.51 68.8 73.0 36.5
UH Manoa Atmospheric Sciences 1/29/23 1545 69.5 86 65.1 10.0 NE | 34 26.8 0.04 58 69.5 29.98 0.51 68.8 73.0 36.5
UH Manoa Atmospheric Sciences 1/29/23 1530 69.4 85 64.7 9.9 NE | 46 22.4 0.02 52 69.4 29.97 0.47 68.8 73.0 36.5
UH Manoa Atmospheric Sciences 1/29/23 1515 69.6 85 65.1 6.9 NE | 42 16.9 0.08 56 69.6 29.99 0.45 68.8 73.0 36.5
UH Manoa Atmospheric Sciences 1/29/23 1500 70.2 84 65.2 8.8 NE | 43 18.8 0.08 85 70.2 29.99 0.37 68.8 73.0 36.5
UH Manoa Atmospheric Sciences 1/29/23 1445 70.5 84 65.6 7.7 NNE | 26 22.4 0.01 120 70.5 29.98 0.29 68.8 73.0 36.5
UH Manoa Atmospheric Sciences 1/29/23 1430 70.2 86 65.7 5.3 NE | 48 14.9 0.01 130 70.2 29.99 0.28 68.8 73.0 36.5
UH Manoa Atmospheric Sciences 1/29/23 1415 70.3 84 65.4 4.5 NE | 45 12.4 0.03 139 70.3 29.99 0.27 68.8 73.0 36.5
UH Manoa Atmospheric Sciences 1/29/23 1400 70.9 82 65.1 11.4 NE | 42 22.7 0.03 149 70.9 30.00 0.24 68.8 73.0 36.5
UH Manoa Atmospheric Sciences 1/29/23 1345 71.2 81 65.2 11.4 NE | 42 23.8 0.00 256 71.2 30.00 0.21 68.8 73.0 36.5
UH Manoa Atmospheric Sciences 1/29/23 1330 70.7 82 65.2 13.7 NE | 38 24.1 0.00 270 70.7 30.00 0.21 68.8 73.0 36.5
UH Manoa Atmospheric Sciences 1/29/23 1315 70.6 84 65.5 11.6 NE | 38 26.2 0.01 200 70.6 30.03 0.21 68.8 73.0 36.5
UH Manoa Atmospheric Sciences 1/29/23 1300 70.6 84 65.7 6.4 N | 3 20.3 0.01 208 70.6 30.04 0.20 68.8 73.0 36.5
UH Manoa Atmospheric Sciences 1/29/23 1245 70.1 85 65.4 9.0 NE | 35 23.8 0.00 327 70.1 30.03 0.19 68.8 73.0 36.5
UH Manoa Atmospheric Sciences 1/29/23 1230 69.8 85 65.1 9.4 NE | 40 23.8 0.04 269 69.8 30.03 0.19 68.8 73.0 36.5
UH Manoa Atmospheric Sciences 1/29/23 1215 70.4 83 65.0 5.0 NNE | 29 16.0 0.03 288 70.4 30.04 0.15 68.8 73.0 36.5
UH Manoa Atmospheric Sciences 1/29/23 1200 70.8 80 64.4 16.0 NE | 38 29.6 0.00 278 70.8 30.05 0.12 68.8 73.0 36.5
UH Manoa Atmospheric Sciences 1/29/23 1145 72.6 76 64.4 16.2 NE | 37 34.4 0.00 360 72.6 30.04 0.12 68.8 73.0 36.5
UH Manoa Atmospheric Sciences 1/29/23 1130 72.3 76 64.3 13.1 NE | 36 30.1 0.00 362 72.3 30.05 0.12 68.8 73.0 36.5
UH Manoa Atmospheric Sciences 1/29/23 1115 72.6 74 63.9 14.6 NE | 37 33.3 0.00 324 72.6 30.07 0.12 68.8 73.0 36.5
UH Manoa Atmospheric Sciences 1/29/23 1100 72.5 74 63.8 19.1 NE | 37 36.5 0.00 368 72.5 30.07 0.12 68.8 72.8 36.5
UH Manoa Atmospheric Sciences 1/29/23 1045 72.4 74 63.7 17.7 NE | 37 32.0 0.01 339 72.4 30.07 0.12 68.8 72.8 35.2
UH Manoa Atmospheric Sciences 1/29/23 1030 71.8 77 64.1 15.8 NE | 36 25.4 0.00 280 71.8 30.08 0.11 68.8 72.6 35.2
UH Manoa Atmospheric Sciences 1/29/23 1015 71.4 78 64.2 16.3 NE | 40 35.2 0.00 266 71.4 30.08 0.11 68.8 72.6 35.2
UH Manoa Atmospheric Sciences 1/29/23 1000 71.0 80 64.7 12.3 NE | 40 28.8 0.00 256 71.0 30.07 0.11 68.8 72.6 33.2
UH Manoa Atmospheric Sciences 1/29/23 0945 70.4 83 65.0 14.6 NNE | 33 31.8 0.00 199 70.4 30.07 0.11 68.8 72.6 33.2
UH Manoa Atmospheric Sciences 1/29/23 0930 69.6 85 64.9 19.3 NE | 35 33.2 0.00 175 69.6 30.06 0.11 68.8 72.6 33.2
UH Manoa Atmospheric Sciences 1/29/23 0915 69.5 86 65.0 16.3 NE | 40 32.7 0.01 156 69.5 30.07 0.11 68.8 72.6 32.7
UH Manoa Atmospheric Sciences 1/29/23 0900 69.8 84 64.7 15.6 NE | 35 30.3 0.01 119 69.8 30.06 0.10 68.8 72.6 31.8
UH Manoa Atmospheric Sciences 1/29/23 0845 70.0 84 64.8 16.6 NE | 36 30.7 0.00 119 70.0 30.06 0.09 68.8 72.6 31.8
UH Manoa Atmospheric Sciences 1/29/23 0830 70.0 84 65.0 13.9 NE | 34 29.6 0.01 94 70.0 30.06 0.09 68.8 72.6 31.8
UH Manoa Atmospheric Sciences 1/29/23 0815 70.2 83 65.0 9.7 NE | 35 24.3 0.01 73 70.2 30.06 0.08 68.8 72.6 31.8
UH Manoa Atmospheric Sciences 1/29/23 0800 70.3 82 64.7 14.7 NNE | 31 29.7 0.01 55 70.3 30.05 0.07 68.8 72.6 31.8
UH Manoa Atmospheric Sciences 1/29/23 0745 70.5 82 64.9 11.2 NNE | 32 24.5 0.00 25 70.5 30.06 0.06 68.8 72.6 31.8
UH Manoa Atmospheric Sciences 1/29/23 0730 70.3 83 65.0 9.8 NNE | 30 24.1 0.01 6 70.3 30.05 0.06 68.8 72.6 31.8
UH Manoa Atmospheric Sciences 1/29/23 0715 71.0 82 65.0 10.9 NNE | 29 24.8 0.01 1 71.0 30.05 0.05 68.8 72.6 31.8
UH Manoa Atmospheric Sciences 1/29/23 0700 70.9 82 65.2 10.2 NE | 34 24.3 0.00 0 70.9 30.05 0.04 68.8 72.6 31.8
UH Manoa Atmospheric Sciences 1/29/23 0645 70.7 83 65.2 7.2 NNE | 27 22.4 0.00 0 70.7 30.06 0.04 68.8 72.6 31.8
UH Manoa Atmospheric Sciences 1/29/23 0630 70.2 82 64.6 6.8 NW | 304 19.6 0.00 0 70.2 30.07 0.04 68.8 72.6 31.8
UH Manoa Atmospheric Sciences 1/29/23 0615 70.2 82 64.4 8.5 NNE | 31 25.7 0.02 0 70.2 30.06 0.04 68.8 72.6 31.8
UH Manoa Atmospheric Sciences 1/29/23 0600 71.5 77 64.0 11.0 NE | 40 21.1 0.01 0 71.5 30.06 0.02 68.8 72.6 31.8
UH Manoa Atmospheric Sciences 1/29/23 0545 71.5 78 64.1 5.6 NNW | 331 17.1 0.00 0 71.5 30.07 0.01 68.8 72.6 31.8
UH Manoa Atmospheric Sciences 1/29/23 0530 71.1 79 64.3 5.2 NNW | 342 12.3 0.00 0 71.1 30.07 0.01 68.8 72.6 31.8
UH Manoa Atmospheric Sciences 1/29/23 0515 70.6 81 64.5 6.1 NNE | 32 18.7 0.00 0 70.6 30.07 0.01 68.8 72.6 31.8
UH Manoa Atmospheric Sciences 1/29/23 0500 70.2 83 64.9 7.9 NE | 43 27.2 0.00 0 70.2 30.06 0.01 68.8 72.6 31.8
UH Manoa Atmospheric Sciences 1/29/23 0445 69.9 85 65.2 5.9 NNE | 14 16.4 0.00 0 69.9 30.05 0.01 68.8 72.6 31.8
UH Manoa Atmospheric Sciences 1/29/23 0430 69.2 86 65.0 5.0 NE | 38 17.8 0.00 0 69.2 30.06 0.01 68.8 72.6 31.8
UH Manoa Atmospheric Sciences 1/29/23 0415 69.2 87 65.0 2.3 S | 189 6.3 0.00 0 69.2 30.06 0.01 69.0 72.6 31.8
UH Manoa Atmospheric Sciences 1/29/23 0400 69.4 86 65.0 4.6 NE | 34 16.9 0.00 0 69.4 30.07 0.01 69.2 72.6 31.8
UH Manoa Atmospheric Sciences 1/29/23 0345 69.6 85 64.9 4.0 E | 88 16.2 0.01 0 69.6 30.07 0.01 69.3 72.6 31.8
UH Manoa Atmospheric Sciences 1/29/23 0330 70.2 83 64.8 4.5 NNE | 29 12.4 0.00 0 70.2 30.07 0.00 69.9 72.6 31.8
UH Manoa Atmospheric Sciences 1/29/23 0315 70.2 83 64.7 3.2 N | 351 9.4 0.00 0 70.2 30.07 0.00 69.9 72.6 31.8
UH Manoa Atmospheric Sciences 1/29/23 0300 70.2 82 64.6 3.9 E | 91 15.4 0.00 0 70.2 30.07 0.00 69.9 72.6 31.8
UH Manoa Atmospheric Sciences 1/29/23 0245 70.8 80 64.4 8.2 NE | 54 21.5 0.00 0 70.8 30.07 0.00 70.1 72.6 31.8
UH Manoa Atmospheric Sciences 1/29/23 0230 71.5 78 64.4 9.1 NE | 48 31.8 0.00 0 71.5 30.07 0.00 71.1 72.6 31.8
UH Manoa Atmospheric Sciences 1/29/23 0215 71.8 78 64.5 9.4 ENE | 60 22.1 0.00 0 71.8 30.06 0.00 71.4 72.6 26.3
UH Manoa Atmospheric Sciences 1/29/23 0200 72.0 77 64.5 6.6 NE | 52 16.2 0.00 0 72.0 30.07 0.00 71.4 72.6 26.3
UH Manoa Atmospheric Sciences 1/29/23 0145 72.0 77 64.4 9.8 NE | 45 21.8 0.00 0 72.0 30.07 0.00 71.4 72.6 26.3
UH Manoa Atmospheric Sciences 1/29/23 0130 72.3 76 64.4 9.1 NE | 39 19.3 0.00 0 72.3 30.08 0.00 71.4 72.6 26.3
UH Manoa Atmospheric Sciences 1/29/23 0115 72.4 76 64.4 7.7 NE | 40 26.3 0.00 0 72.4 30.08 0.00 71.4 72.6 26.3
UH Manoa Atmospheric Sciences 1/29/23 0100 72.2 76 64.3 5.8 NE | 55 12.0 0.00 0 72.2 30.07 0.00 71.4 72.4 24.6
UH Manoa Atmospheric Sciences 1/29/23 0045 72.0 77 64.3 7.2 ENE | 61 24.6 0.00 0 72.0 30.07 0.00 71.4 72.2 24.6
UH Manoa Atmospheric Sciences 1/29/23 0030 72.0 77 64.5 4.1 ENE | 61 11.4 0.00 0 72.0 30.08 0.00 71.4 72.2 24.4
UH Manoa Atmospheric Sciences 1/29/23 0015 71.7 78 64.5 7.4 ENE | 67 24.4 0.00 0 71.7 30.08 0.00 71.4 72.0 24.4
UH Manoa Atmospheric Sciences 1/29/23 0000 71.4 79 64.7 8.1 ENE | 58 20.9 0.00 0 71.4 30.08 0.26 69.3 73.2 35.1
UH Manoa Atmospheric Sciences 1/28/23 2345 71.4 79 64.6 9.4 NE | 46 25.6 0.00 0 71.4 30.09 0.26 69.3 73.2 35.1
UH Manoa Atmospheric Sciences 1/28/23 2330 71.2 80 64.7 11.1 NE | 47 24.7 0.00 0 71.2 30.09 0.26 69.3 73.2 35.1
UH Manoa Atmospheric Sciences 1/28/23 2315 70.9 81 64.8 12.4 NE | 39 27.0 0.00 0 70.9 30.09 0.26 69.3 73.2 35.1
UH Manoa Atmospheric Sciences 1/28/23 2300 71.0 81 64.8 8.9 NE | 43 21.3 0.00 0 71.0 30.10 0.26 69.3 73.2 35.1
UH Manoa Atmospheric Sciences 1/28/23 2245 71.1 80 64.8 10.7 NE | 42 25.0 0.00 0 71.1 30.10 0.26 69.3 73.2 35.1
UH Manoa Atmospheric Sciences 1/28/23 2230 70.8 81 64.7 12.7 NE | 36 27.7 0.00 0 70.8 30.09 0.26 69.3 73.2 35.1
UH Manoa Atmospheric Sciences 1/28/23 2215 70.8 81 64.7 11.2 NE | 39 31.5 0.00 0 70.8 30.09 0.26 69.3 73.2 35.1
UH Manoa Atmospheric Sciences 1/28/23 2200 70.9 81 64.7 13.1 NNE | 31 32.0 0.00 0 70.9 30.09 0.26 69.3 73.2 35.1
UH Manoa Atmospheric Sciences 1/28/23 2145 70.4 83 65.1 11.2 NE | 37 23.5 0.00 0 70.4 30.09 0.26 69.3 73.2 35.1
UH Manoa Atmospheric Sciences 1/28/23 2130 69.5 86 65.1 11.1 NE | 48 26.0 0.01 0 69.5 30.10 0.26 69.3 73.2 35.1
UH Manoa Atmospheric Sciences 1/28/23 2115 69.7 84 64.8 11.9 NE | 41 25.5 0.02 0 69.7 30.10 0.25 69.3 73.2 35.1
UH Manoa Atmospheric Sciences 1/28/23 2100 70.0 83 64.6 14.1 NE | 37 28.5 0.01 0 70.0 30.10 0.23 69.7 73.2 35.1
UH Manoa Atmospheric Sciences 1/28/23 2045 70.9 81 64.7 16.0 NE | 36 25.8 0.00 0 70.9 30.10 0.22 69.8 73.2 35.1
UH Manoa Atmospheric Sciences 1/28/23 2030 70.4 83 65.2 16.1 NE | 42 31.5 0.00 0 70.4 30.10 0.22 69.8 73.2 35.1
UH Manoa Atmospheric Sciences 1/28/23 2015 70.2 85 65.5 7.2 NE | 35 21.8 0.00 0 70.2 30.10 0.22 69.8 73.2 35.1
UH Manoa Atmospheric Sciences 1/28/23 2000 70.2 84 65.4 8.3 NE | 38 23.1 0.00 0 70.2 30.10 0.22 69.8 73.2 35.1
UH Manoa Atmospheric Sciences 1/28/23 1945 70.1 84 65.2 10.1 NE | 41 24.5 0.01 0 70.1 30.09 0.22 69.8 73.2 35.1
UH Manoa Atmospheric Sciences 1/28/23 1930 70.6 82 64.8 11.7 NE | 39 24.1 0.00 0 70.6 30.08 0.21 69.8 73.2 35.1
UH Manoa Atmospheric Sciences 1/28/23 1915 70.9 82 65.0 18.3 NE | 37 31.9 0.00 0 70.9 30.07 0.21 69.8 73.2 35.1
UH Manoa Atmospheric Sciences 1/28/23 1900 71.2 81 65.0 16.1 NE | 40 30.3 0.00 0 71.2 30.06 0.21 69.8 73.2 35.1
UH Manoa Atmospheric Sciences 1/28/23 1845 71.9 78 64.7 18.9 NE | 39 32.8 0.00 0 71.9 30.06 0.21 69.8 73.2 35.1
UH Manoa Atmospheric Sciences 1/28/23 1830 72.3 77 64.6 17.1 NE | 35 30.8 0.00 0 72.3 30.06 0.21 69.8 73.2 35.1
UH Manoa Atmospheric Sciences 1/28/23 1815 72.3 77 64.6 16.6 NE | 35 29.2 0.00 1 72.3 30.05 0.21 69.8 73.2 35.1
UH Manoa Atmospheric Sciences 1/28/23 1800 72.2 78 64.9 15.9 NE | 37 31.0 0.00 14 72.2 30.05 0.21 69.8 73.2 35.1
Max     72.6 89 66.0 19.3 - 36.5 0.08 368 72.6 30.10 0.62 71.4 73.2 36.5
Avg     70.7 82 64.8 10.2 - 23.4 0.01 71 70.7 30.05 - - - -
Min     69.2 74 63.7 2.0 - 6.3 0.00 0 69.2 29.96 0.00 68.8 72.0 24.4